Terminal Aerodrome Forecast
Issued by NWS

Home | Current Version | Previous Version | Graphics & Text | Print | Product List | Glossary On
Versions: 1 2 3 4 5 6 7 8 9 10 11 12 13 14 15 16 17 18
682
FTUS43 KMPX 181136
TAFAXN
TAF
KAXN 181136Z 1812/1912 02005KT P6SM SCT070 BKN080
     FM181300 03007KT P6SM VCTS BKN050CB BKN060
      TEMPO 1816/1820 3SM TSRA BKN030CB
     FM182100 05010KT P6SM SCT060 BKN100
     FM190100 05006KT P6SM SCT020 SCT100
     FM191000 08004KT P6SM FEW050=

USA.gov is the U.S. government's official web portal to all federal, state and local government web resources and services.